Terminal Aerodrome Forecast
Issued by NWS Memphis, TN

Home | Current Version | Previous Version | Text Only | Print | Product List | Glossary On
Versions: 1 2 3 4 5 6 7 8 9 10 11 12 13 14
635
FTUS44 KMEG 180530
TAFMKL
TAF
KMKL 180530Z 1806/1906 VRB03KT 3SM BR OVC004
     FM180900 VRB03KT 1SM BR OVC002
     FM181500 23005KT 4SM BR OVC006
     FM181800 24005KT P6SM OVC008
     FM182300 25006KT P6SM BKN012=

USA.gov is the U.S. government's official web portal to all federal, state and local government web resources and services.